Pedro Alexandre, Brazil
Current Conditions -  °F | °C
As of 2:00 AM on Tuesday 21 Oct 2014 (Local Time) from SBAR Reporting Station
Scattered Clouds Scattered Clouds  
Wind Chill: 77°   Ceiling: Unl
Heat Index: 79°   Visibility: 6mi
Dew Point: 70°   Wind: 10mph
Humidity: 78%   Direction: 90°E
Pressure: 29.85"   Gusts: NA
Location:  10.01°S, 37.89°W
Report Text: SBAR 210500Z 09009KT 9999 SCT015 25/21 Q1011
Loading
Personal Weather Stations






























Interactive Weather Map
Tropical Storm Tracking
New forecast layout! Learn more

10-Day Weather Forecast

Advertisements
Track Severe Weather on mobile